createdAt,value
2023-12-04T00:00:53.365Z,100206.06
2023-12-04T00:04:54.966Z,100196.22
2023-12-04T00:08:56.510Z,100183.50
2023-12-04T00:12:59.515Z,100164.16
2023-12-04T00:17:01.069Z,100166.66
2023-12-04T00:21:02.607Z,100164.28
2023-12-04T00:25:05.075Z,100166.97
2023-12-04T00:29:07.984Z,100164.28
2023-12-04T00:33:10.993Z,100154.41
2023-12-04T00:37:12.748Z,100155.22
2023-12-04T00:41:14.390Z,100141.91
2023-12-04T00:45:17.252Z,100132.75
2023-12-04T00:49:18.855Z,100136.88
2023-12-04T00:53:20.514Z,100121.97
2023-12-04T00:57:22.154Z,100125.16
2023-12-04T01:01:24.969Z,100111.97
2023-12-04T01:05:26.562Z,100111.91
2023-12-04T01:09:28.079Z,100107.81
2023-12-04T01:13:29.877Z,100109.44
2023-12-04T01:17:32.788Z,100093.31
2023-12-04T01:21:34.411Z,100084.25
2023-12-04T01:25:35.947Z,100091.03
2023-12-04T01:29:37.479Z,100089.28
2023-12-04T01:33:40.640Z,100084.38
2023-12-04T01:37:42.374Z,100071.88
2023-12-04T01:41:43.910Z,100086.78
2023-12-04T01:45:45.696Z,100084.25
2023-12-04T01:49:48.680Z,100068.44
2023-12-04T01:53:51.758Z,100071.06
2023-12-04T01:57:53.566Z,100065.97
2023-12-04T02:01:55.275Z,100061.72
2023-12-04T02:06:00.408Z,100046.72
2023-12-04T02:10:02.149Z,100055.78
2023-12-04T02:14:03.707Z,100056.78
2023-12-04T02:18:06.141Z,100054.69
2023-12-04T02:22:09.076Z,100054.06
2023-12-04T02:26:17.630Z,100052.50
2023-12-04T02:30:22.189Z,100048.28
2023-12-04T02:34:25.126Z,100040.59
2023-12-04T02:38:27.398Z,100031.53
2023-12-04T02:42:30.524Z,100017.41
2023-12-04T02:46:32.366Z,100021.50
2023-12-04T02:50:33.824Z,100022.41
2023-12-04T02:54:35.435Z,100015.75
2023-12-04T02:58:38.252Z,100018.03
2023-12-04T03:02:39.682Z,100011.47
2023-12-04T03:06:41.193Z,99992.22
2023-12-04T03:10:42.672Z,99998.78
2023-12-04T03:14:45.526Z,99992.31
2023-12-04T03:18:47.215Z,99988.94
2023-12-04T03:22:48.762Z,99977.19
2023-12-04T03:26:50.227Z,99977.28
2023-12-04T03:30:53.095Z,99967.25
2023-12-04T03:34:54.627Z,99959.59
2023-12-04T03:38:56.092Z,99954.97
2023-12-04T03:42:57.613Z,99950.53
2023-12-04T03:47:00.645Z,99956.84
2023-12-04T03:51:02.179Z,99948.16
2023-12-04T03:55:04.636Z,99954.88
2023-12-04T03:59:06.645Z,99947.44
2023-12-04T04:03:09.808Z,99939.91
2023-12-04T04:07:12.495Z,99939.97
2023-12-04T04:11:14.429Z,99929.34
2023-12-04T04:15:15.978Z,99928.31
2023-12-04T04:19:18.886Z,99915.59
2023-12-04T04:23:20.395Z,99917.50
2023-12-04T04:27:21.879Z,99897.34
2023-12-04T04:31:23.612Z,99909.22
2023-12-04T04:35:26.402Z,99906.81
2023-12-04T04:39:27.878Z,99905.06
2023-12-04T04:43:29.612Z,99907.00
2023-12-04T04:47:31.102Z,99916.97
2023-12-04T04:51:34.175Z,99901.81
2023-12-04T04:55:47.251Z,99868.69
2023-12-04T04:59:50.727Z,99887.75
2023-12-04T05:08:50.559Z,99888.50
2023-12-04T05:12:52.265Z,99886.81
2023-12-04T05:16:53.740Z,99884.38
2023-12-04T05:20:55.231Z,99877.59
2023-12-04T05:24:58.889Z,99876.75
2023-12-04T05:29:00.398Z,99868.38
2023-12-04T05:33:02.907Z,99860.69
2023-12-04T05:37:04.818Z,99861.50
2023-12-04T05:41:07.806Z,99866.28
2023-12-04T05:45:10.163Z,99862.19
2023-12-04T05:49:11.731Z,99861.16
2023-12-04T05:53:13.527Z,99860.41
2023-12-04T05:57:16.348Z,99848.75
2023-12-04T06:01:18.103Z,99855.34
2023-12-04T06:05:19.858Z,99844.69
2023-12-04T06:09:21.370Z,99843.81
2023-12-04T06:13:24.169Z,99840.31
2023-12-04T06:17:25.984Z,99839.41
2023-12-04T06:21:27.455Z,99817.50
2023-12-04T06:25:29.858Z,99812.72
2023-12-04T06:29:33.784Z,99796.09
2023-12-04T06:33:36.009Z,99778.53
2023-12-04T06:37:39.144Z,99785.38
2023-12-04T06:41:41.537Z,99791.19
2023-12-04T06:45:45.118Z,99774.41
2023-12-04T06:49:46.651Z,99762.84
2023-12-04T06:53:48.266Z,99761.84
2023-12-04T06:57:49.823Z,99753.47
2023-12-04T07:01:55.017Z,99765.72
2023-12-04T07:05:56.612Z,99751.25
2023-12-04T07:09:58.415Z,99742.09
2023-12-04T07:13:59.982Z,99743.53
2023-12-04T07:18:05.176Z,99733.47
2023-12-04T07:22:06.806Z,99744.06
2023-12-04T07:26:08.441Z,99735.66
2023-12-04T07:30:10.625Z,99732.88
2023-12-04T07:34:15.240Z,99738.66
2023-12-04T07:38:16.847Z,99735.94
2023-12-04T07:42:18.387Z,99732.66
2023-12-04T07:46:19.996Z,99729.00
2023-12-04T07:50:22.785Z,99746.66
2023-12-04T07:54:24.241Z,99734.78
2023-12-04T07:58:25.754Z,99726.34
2023-12-04T08:02:27.505Z,99726.94
2023-12-04T08:06:30.929Z,99718.22
2023-12-04T08:10:32.459Z,99725.25
2023-12-04T08:14:34.915Z,99732.66
2023-12-04T08:18:36.841Z,99728.47
2023-12-04T08:22:40.035Z,99715.09
2023-12-04T08:26:41.510Z,99706.84
2023-12-04T08:30:43.080Z,99697.66
2023-12-04T08:34:45.196Z,99702.59
2023-12-04T08:38:48.052Z,99690.94
2023-12-04T08:42:49.573Z,99692.13
2023-12-04T08:46:51.217Z,99677.88
2023-12-04T08:50:52.765Z,99682.75
2023-12-04T08:54:56.654Z,99682.75
2023-12-04T08:58:58.218Z,99677.75
2023-12-04T09:03:08.212Z,99679.06
2023-12-04T09:08:26.741Z,99681.09
2023-12-04T09:11:35.320Z,99651.84
2023-12-04T09:15:36.942Z,99664.16
2023-12-04T09:19:38.686Z,99664.03
2023-12-04T09:23:41.418Z,99653.13
2023-12-04T09:27:44.568Z,99648.22
2023-12-04T09:31:46.089Z,99642.00
2023-12-04T09:35:47.615Z,99641.81
2023-12-04T09:39:49.069Z,99641.19
2023-12-04T09:43:52.455Z,99625.69
2023-12-04T09:47:55.200Z,99616.81
2023-12-04T09:51:58.886Z,99603.56
2023-12-04T09:56:04.371Z,99601.75
2023-12-04T10:00:10.126Z,99596.47
2023-12-04T10:04:11.610Z,99601.31
2023-12-04T10:08:13.250Z,99579.44
2023-12-04T10:12:19.371Z,99595.25
2023-12-04T10:16:36.505Z,99596.00
2023-12-04T10:20:52.578Z,99591.69
2023-12-04T10:24:54.076Z,99586.22
2023-12-04T10:29:03.576Z,99578.66
2023-12-04T10:33:07.711Z,99561.91
2023-12-04T10:37:11.098Z,99553.00
2023-12-04T10:41:15.937Z,99552.75
2023-12-04T10:45:17.977Z,99548.41
2023-12-04T10:49:21.314Z,99551.91
2023-12-04T10:53:22.895Z,99550.09
2023-12-04T10:57:28.007Z,99543.22
2023-12-04T11:01:33.368Z,99537.63
2023-12-04T11:05:38.956Z,99538.34
2023-12-04T11:09:41.150Z,99534.31
2023-12-04T11:13:47.093Z,99527.38
2023-12-04T11:17:52.277Z,99523.03
2023-12-04T11:21:59.578Z,99507.88
2023-12-04T11:26:02.092Z,99492.81
2023-12-04T11:30:04.987Z,99494.47
2023-12-04T11:34:09.861Z,99469.25
2023-12-04T11:38:15.274Z,99472.25
2023-12-04T11:42:20.264Z,99456.19
2023-12-04T11:46:23.648Z,99442.38
2023-12-04T11:50:25.835Z,99437.97
2023-12-04T11:54:29.888Z,99435.97
2023-12-04T11:58:31.420Z,99431.34
2023-12-04T12:03:14.092Z,99415.16
2023-12-04T12:06:55.499Z,99401.97
2023-12-04T12:10:59.399Z,99397.56
2023-12-04T12:15:01.065Z,99387.56
2023-12-04T12:19:02.590Z,99390.44
2023-12-04T12:23:04.625Z,99386.03
2023-12-04T12:27:08.652Z,99398.38
2023-12-04T12:31:11.846Z,99374.00
2023-12-04T12:35:13.541Z,99372.22
2023-12-04T12:39:15.525Z,99362.09
2023-12-04T12:43:21.550Z,99360.06
2023-12-04T12:47:24.087Z,99351.75
2023-12-04T12:51:26.966Z,99339.31
2023-12-04T12:55:28.775Z,99322.50
2023-12-04T12:59:31.766Z,99330.19
2023-12-04T13:03:33.449Z,99325.72
2023-12-04T13:07:35.109Z,99307.81
2023-12-04T13:11:36.616Z,99299.50
2023-12-04T13:15:39.610Z,99264.25
2023-12-04T13:19:41.099Z,99277.78
2023-12-04T13:23:42.831Z,99270.84
2023-12-04T13:27:44.389Z,99234.44
2023-12-04T13:31:47.472Z,99227.69
2023-12-04T13:35:49.241Z,99229.41
2023-12-04T13:40:24.098Z,99225.69
2023-12-04T13:44:37.840Z,99233.06
2023-12-04T13:49:29.701Z,99222.06
2023-12-04T13:53:53.864Z,99226.38
2023-12-04T13:58:04.061Z,99220.22
2023-12-04T14:02:06.352Z,99219.03
2023-12-04T14:06:09.379Z,99200.75
2023-12-04T14:10:12.484Z,99205.09
2023-12-04T14:14:14.312Z,99195.28
2023-12-04T14:18:15.871Z,99185.72
2023-12-04T14:22:17.689Z,99174.59
2023-12-04T14:26:20.564Z,99175.50
2023-12-04T14:30:22.060Z,99168.66
2023-12-04T14:34:24.111Z,99154.97
2023-12-04T14:38:25.993Z,99145.72
2023-12-04T14:42:29.006Z,99136.88
2023-12-04T14:46:30.593Z,99134.44
2023-12-04T14:50:32.202Z,99138.22
2023-12-04T14:54:33.844Z,99136.72
2023-12-04T14:58:36.659Z,99131.19
2023-12-04T15:02:41.072Z,99124.50
2023-12-04T15:06:42.727Z,99126.34
2023-12-04T15:10:44.362Z,99115.97
2023-12-04T15:14:47.226Z,99105.75
2023-12-04T15:18:49.914Z,99112.22
2023-12-04T15:22:51.536Z,99109.19
2023-12-04T15:26:53.019Z,99109.69
2023-12-04T15:30:56.049Z,99099.53
2023-12-04T15:34:58.822Z,99091.69
2023-12-04T15:39:01.203Z,99078.22
2023-12-04T15:43:02.875Z,99078.88
2023-12-04T15:47:06.188Z,99066.00
2023-12-04T15:51:08.299Z,99072.22
2023-12-04T15:55:10.140Z,99079.25
2023-12-04T15:59:11.585Z,99077.19
2023-12-04T16:03:15.525Z,99071.94
2023-12-04T16:07:17.136Z,99076.22
2023-12-04T16:11:18.798Z,99082.72
2023-12-04T16:15:20.535Z,99069.03
2023-12-04T16:19:23.481Z,99083.94
2023-12-04T16:23:25.033Z,99066.97
2023-12-04T16:27:26.635Z,99059.31
2023-12-04T16:31:28.192Z,99062.81
2023-12-04T16:35:31.993Z,99044.16
2023-12-04T16:39:33.720Z,99036.66
2023-12-04T16:43:35.243Z,99047.25
2023-12-04T16:47:36.949Z,99050.00
2023-12-04T16:51:39.994Z,99037.31
2023-12-04T16:55:41.818Z,99027.34
2023-12-04T16:59:44.568Z,99024.16
2023-12-04T17:03:46.199Z,99016.81
2023-12-04T17:07:49.095Z,99011.78
2023-12-04T17:11:51.560Z,99004.75
2023-12-04T17:15:53.060Z,99007.41
2023-12-04T17:19:54.907Z,99004.91
2023-12-04T17:23:57.794Z,99005.06
2023-12-04T17:27:59.276Z,98994.22
2023-12-04T17:32:00.860Z,98995.34
2023-12-04T17:36:02.636Z,98988.91
2023-12-04T17:40:06.606Z,98978.28
2023-12-04T17:44:08.082Z,98978.03
2023-12-04T17:48:09.639Z,98970.56
2023-12-04T17:52:11.331Z,98964.56
2023-12-04T17:56:14.224Z,98961.22
2023-12-04T18:00:16.420Z,98939.19
2023-12-04T18:04:18.071Z,98948.06
2023-12-04T18:08:21.032Z,98930.44
2023-12-04T18:12:24.041Z,98930.19
2023-12-04T18:16:26.396Z,98936.03
2023-12-04T18:20:29.304Z,98921.19
2023-12-04T18:24:30.778Z,98919.56
2023-12-04T18:28:34.356Z,98906.97
2023-12-04T18:32:36.673Z,98906.88
2023-12-04T18:36:43.000Z,98906.56
2023-12-04T18:40:45.136Z,98904.06
2023-12-04T18:44:48.628Z,98881.31
2023-12-04T18:48:50.757Z,98882.78
2023-12-04T18:52:52.831Z,98874.00
2023-12-04T18:56:54.320Z,98885.88
2023-12-04T19:00:57.468Z,98885.78
2023-12-04T19:05:01.314Z,98865.50
2023-12-04T19:09:03.129Z,98865.25
2023-12-04T19:13:04.924Z,98876.94
2023-12-04T19:17:07.860Z,98853.28
2023-12-04T19:21:09.998Z,98864.03
2023-12-04T19:25:11.515Z,98846.38
2023-12-04T19:29:18.681Z,98843.69
2023-12-04T19:33:28.446Z,98851.13
2023-12-04T19:37:32.336Z,98847.50
2023-12-04T19:41:33.839Z,98837.38
2023-12-04T19:45:35.683Z,98830.13
2023-12-04T19:49:43.453Z,98836.97
2023-12-04T19:53:45.003Z,98828.25
2023-12-04T19:57:46.539Z,98835.78
2023-12-04T20:01:48.039Z,98834.66
2023-12-04T20:05:51.161Z,98827.34
2023-12-04T20:09:52.641Z,98818.91
2023-12-04T20:13:54.127Z,98820.38
2023-12-04T20:17:56.764Z,98830.00
2023-12-04T20:22:00.221Z,98823.59
2023-12-04T20:26:01.987Z,98817.66
2023-12-04T20:30:04.271Z,98810.00
2023-12-04T20:34:06.401Z,98805.88
2023-12-04T20:38:09.321Z,98793.13
2023-12-04T20:42:10.839Z,98797.22
2023-12-04T20:46:12.338Z,98789.66
2023-12-04T20:50:13.894Z,98786.19
2023-12-04T20:54:17.924Z,98783.25
2023-12-04T20:58:19.538Z,98779.81
2023-12-04T21:02:21.016Z,98778.91
2023-12-04T21:06:22.536Z,98762.91
2023-12-04T21:10:25.434Z,98773.63
2023-12-04T21:14:27.034Z,98771.81
2023-12-04T21:18:28.706Z,98776.78
2023-12-04T21:22:30.685Z,98761.38
2023-12-04T21:26:33.869Z,98758.69
2023-12-04T21:30:35.448Z,98755.34
2023-12-04T21:34:37.161Z,98769.56
2023-12-04T21:38:38.782Z,98755.25
2023-12-04T21:42:42.103Z,98761.38
2023-12-04T21:46:43.730Z,98746.88
2023-12-04T21:50:45.317Z,98744.28
2023-12-04T21:54:46.962Z,98747.25
2023-12-04T21:58:49.868Z,98741.41
2023-12-04T22:02:51.379Z,98738.88
2023-12-04T22:06:52.966Z,98733.38
2023-12-04T22:10:54.714Z,98725.00
2023-12-04T22:14:57.994Z,98727.06
2023-12-04T22:19:00.307Z,98734.00
2023-12-04T22:23:01.828Z,98714.66
2023-12-04T22:27:03.693Z,98711.03
2023-12-04T22:31:07.245Z,98725.38
2023-12-04T22:35:09.157Z,98712.94
2023-12-04T22:39:10.766Z,98719.25
2023-12-04T22:43:12.510Z,98699.50
2023-12-04T22:47:15.475Z,98700.56
2023-12-04T22:51:17.023Z,98709.03
2023-12-04T22:55:18.514Z,98696.41
2023-12-04T22:59:20.188Z,98694.44
2023-12-04T23:03:23.092Z,98696.06
2023-12-04T23:07:24.614Z,98691.72
2023-12-04T23:11:27.122Z,98682.47
2023-12-04T23:15:28.719Z,98692.97
2023-12-04T23:19:32.303Z,98687.84
2023-12-04T23:23:33.949Z,98680.16
2023-12-04T23:27:38.128Z,98672.53
2023-12-04T23:31:40.290Z,98660.59
2023-12-04T23:35:43.103Z,98664.56
2023-12-04T23:39:44.634Z,98673.75
2023-12-04T23:43:46.157Z,98661.13
2023-12-04T23:47:47.716Z,98662.56
2023-12-04T23:51:51.729Z,98650.47
2023-12-04T23:55:53.194Z,98651.28
2023-12-04T23:59:54.670Z,98665.72
